Mesa, AZ

2:59 PM MST on November 27, 2014 (GMT -0700)
Falcon Field | Change Station
CLOSE
Current Station
Airport
Location: Mesa,
Elevation: 1391 ft
Nearby Weather Stations

Elev 1391 ft 33.46 °N, 111.73 °W | Updated 12 minutes ago

Clear
Clear
82 °F
Feels Like 82 °F
N
6
Wind Variable Wind from NW

Today
High -- | Low -- °F
--% Chance of Precip.
Yesterday
High -- | Low -- °F
Precip. -- in
7:09 AM 5:20 PM
Waxing Crescent, 33% visible
Pressure 30.08 in
Visibility 40.0 miles
Clouds Clear
Dew Point 21 °F
Humidity 10%
Rainfall 0.00 in
Snow Depth Not available.
UV 2 out of 12
Pollen 3.40 out of 12
Air Quality Not available.
Flu Activity Not available.
METAR KFFZ 272147Z 31005KT 40SM SKC 28/M06 A3008

More Conditions Fewer Conditions

Pressure 30.08 in
Visibility 40.0 miles
Clouds Clear
Dew Point 21 °F
Humidity 10%
Rainfall 0.00 in
Snow Depth Not available.
UV 2 out of 12
Pollen 3.40 out of 12
Air Quality Not available.
Flu Activity Not available.
METAR KFFZ 272147Z 31005KT 40SM SKC 28/M06 A3008

More Conditions Fewer Conditions

10-Day Weather Forecast

Almanac

Astronomy

Nov. 27, 2014 Rise Set
Actual Time
Civil Twilight
Nautical Twilight
Astronomical Twilight
Moon
Length of Visible Light
Length of Day
Tomorrow will be .
, % of the Moon is Illuminated

Today's Extremes

State Highs State Lows

Community

WunderPhotos

Upload Photos

1,774,115 photos uploaded!

WunderBlogs® & News

Nearby

Air Quality

  Air Quality AQ Index Pollutant
Not available.

Snow Depth

Station Depth Elevation

Earthquake Activity

City Distance Mag. Time & Date
Minimum magnitude displayed is 2.5.

Coastal Water Temperatures

Place Temperature

Nearby Weather Stations